Portland, Oregon
Traffic Map
Current Weather Conditions
Portland, Oregon
Overcast Haze
Overcast
50°
Feels Like: 50°
Wind Chill: 50° Ceiling: 500
Heat Index: 50° Visibility: 4mi
Dew Point: 50° Wind: 3mph
Humidity: 100% Direction: 340° (NNW)
Pressure: 30.61in Gusts: 0mph
Raw Report DataKPDX 231522Z 34003KT 4SM BR OVC005 10/10 A3061 RMK AO2 T01000100
Traffic Incident Summary
Active as of:
Severity:
Category:
InformationThere was an issue retrieving the traffic information for this location. Please try a different location or try again shortly.
Advertisements